sensor_id;sensor_type;location;lat;lon;timestamp;pressure;altitude;pressure_sealevel;temperature;humidity
13235;BME280;6683;48.506;9.050;2022-08-18T00:01:38;97832.09;;;22.06;54.62
13235;BME280;6683;48.506;9.050;2022-08-18T00:04:42;97829.91;;;22.03;54.63
13235;BME280;6683;48.506;9.050;2022-08-18T00:07:46;97822.41;;;22.00;54.88
13235;BME280;6683;48.506;9.050;2022-08-18T00:10:49;97806.81;;;21.97;55.08
13235;BME280;6683;48.506;9.050;2022-08-18T00:13:51;97794.16;;;21.93;55.07
13235;BME280;6683;48.506;9.050;2022-08-18T00:16:54;97781.28;;;21.90;55.57
13235;BME280;6683;48.506;9.050;2022-08-18T00:19:57;97776.72;;;21.85;55.39
13235;BME280;6683;48.506;9.050;2022-08-18T00:23:01;97769.69;;;21.79;55.64
13235;BME280;6683;48.506;9.050;2022-08-18T00:26:04;97775.59;;;21.76;55.84
13235;BME280;6683;48.506;9.050;2022-08-18T00:29:06;97776.38;;;21.72;56.30
13235;BME280;6683;48.506;9.050;2022-08-18T00:32:13;97773.44;;;21.68;56.25
13235;BME280;6683;48.506;9.050;2022-08-18T00:35:19;97769.69;;;21.64;56.46
13235;BME280;6683;48.506;9.050;2022-08-18T00:38:23;97761.06;;;21.62;56.74
13235;BME280;6683;48.506;9.050;2022-08-18T00:41:27;97762.69;;;21.58;56.67
13235;BME280;6683;48.506;9.050;2022-08-18T00:44:30;97770.72;;;21.53;56.81
13235;BME280;6683;48.506;9.050;2022-08-18T00:47:33;97768.88;;;21.48;56.85
13235;BME280;6683;48.506;9.050;2022-08-18T00:50:41;97761.06;;;21.42;56.85
13235;BME280;6683;48.506;9.050;2022-08-18T00:53:57;97758.06;;;21.38;57.12
13235;BME280;6683;48.506;9.050;2022-08-18T00:57:05;97767.50;;;21.36;57.31
13235;BME280;6683;48.506;9.050;2022-08-18T01:00:09;97763.47;;;21.33;57.52
13235;BME280;6683;48.506;9.050;2022-08-18T01:03:15;97750.28;;;21.32;57.44
13235;BME280;6683;48.506;9.050;2022-08-18T01:06:27;97743.03;;;21.27;57.51
13235;BME280;6683;48.506;9.050;2022-08-18T01:09:33;97747.88;;;21.25;57.70
13235;BME280;6683;48.506;9.050;2022-08-18T01:12:35;97748.13;;;21.24;57.83
13235;BME280;6683;48.506;9.050;2022-08-18T01:15:38;97747.56;;;21.22;58.13
13235;BME280;6683;48.506;9.050;2022-08-18T01:18:41;97740.59;;;21.21;58.23
13235;BME280;6683;48.506;9.050;2022-08-18T01:22:07;97746.50;;;21.18;58.17
13235;BME280;6683;48.506;9.050;2022-08-18T01:25:15;97736.03;;;21.16;58.46
13235;BME280;6683;48.506;9.050;2022-08-18T01:28:39;97736.53;;;21.13;58.24
13235;BME280;6683;48.506;9.050;2022-08-18T01:31:48;97731.72;;;21.10;58.35
13235;BME280;6683;48.506;9.050;2022-08-18T01:34:54;97725.53;;;21.10;58.61
13235;BME280;6683;48.506;9.050;2022-08-18T01:37:57;97723.13;;;21.08;58.73
13235;BME280;6683;48.506;9.050;2022-08-18T01:41:00;97721.50;;;21.07;59.04
13235;BME280;6683;48.506;9.050;2022-08-18T01:44:04;97719.34;;;21.09;59.05
13235;BME280;6683;48.506;9.050;2022-08-18T01:47:10;97714.81;;;21.10;59.25
13235;BME280;6683;48.506;9.050;2022-08-18T01:50:13;97712.66;;;21.12;59.32
13235;BME280;6683;48.506;9.050;2022-08-18T01:53:15;97721.53;;;21.12;59.46
13235;BME280;6683;48.506;9.050;2022-08-18T01:56:20;97719.91;;;21.11;59.36
13235;BME280;6683;48.506;9.050;2022-08-18T01:59:22;97715.34;;;21.12;59.51
13235;BME280;6683;48.506;9.050;2022-08-18T02:02:29;97717.22;;;21.11;59.38
13235;BME280;6683;48.506;9.050;2022-08-18T02:05:37;97715.34;;;21.12;59.39
13235;BME280;6683;48.506;9.050;2022-08-18T02:08:41;97719.91;;;21.11;59.75
13235;BME280;6683;48.506;9.050;2022-08-18T02:11:45;97721.25;;;21.09;59.79
13235;BME280;6683;48.506;9.050;2022-08-18T02:14:47;97720.72;;;21.07;59.74
13235;BME280;6683;48.506;9.050;2022-08-18T02:17:50;97714.53;;;21.06;59.86
13235;BME280;6683;48.506;9.050;2022-08-18T02:20:52;97714.81;;;21.05;60.07
13235;BME280;6683;48.506;9.050;2022-08-18T02:23:55;97718.03;;;21.07;60.17
13235;BME280;6683;48.506;9.050;2022-08-18T02:26:59;97711.84;;;21.06;60.03
13235;BME280;6683;48.506;9.050;2022-08-18T02:30:04;97707.31;;;21.07;60.01
13235;BME280;6683;48.506;9.050;2022-08-18T02:33:10;97710.00;;;21.07;60.21
13235;BME280;6683;48.506;9.050;2022-08-18T02:36:13;97716.13;;;21.07;60.21
13235;BME280;6683;48.506;9.050;2022-08-18T02:39:16;97718.81;;;21.07;60.35
13235;BME280;6683;48.506;9.050;2022-08-18T02:42:19;97712.13;;;21.05;60.24
13235;BME280;6683;48.506;9.050;2022-08-18T02:45:22;97708.34;;;21.06;60.52
13235;BME280;6683;48.506;9.050;2022-08-18T02:48:25;97713.72;;;21.06;60.37
13235;BME280;6683;48.506;9.050;2022-08-18T02:51:31;97704.63;;;21.07;60.42
13235;BME280;6683;48.506;9.050;2022-08-18T02:54:33;97698.16;;;21.08;60.38
13235;BME280;6683;48.506;9.050;2022-08-18T02:57:41;97693.06;;;21.06;60.20
13235;BME280;6683;48.506;9.050;2022-08-18T03:00:44;97685.03;;;21.06;60.25
13235;BME280;6683;48.506;9.050;2022-08-18T03:03:46;97683.66;;;21.04;60.25
13235;BME280;6683;48.506;9.050;2022-08-18T03:06:49;97684.16;;;21.01;60.33
13235;BME280;6683;48.506;9.050;2022-08-18T03:09:51;97694.34;;;20.99;60.32
13235;BME280;6683;48.506;9.050;2022-08-18T03:12:55;97686.56;;;20.97;60.45
13235;BME280;6683;48.506;9.050;2022-08-18T03:15:58;97681.19;;;20.97;60.54
13235;BME280;6683;48.506;9.050;2022-08-18T03:19:01;97667.78;;;20.97;60.48
13235;BME280;6683;48.506;9.050;2022-08-18T03:22:03;97671.56;;;20.96;60.67
13235;BME280;6683;48.506;9.050;2022-08-18T03:25:08;97679.06;;;20.94;60.77
13235;BME280;6683;48.506;9.050;2022-08-18T03:28:13;97671.00;;;20.94;60.90
13235;BME280;6683;48.506;9.050;2022-08-18T03:31:18;97666.72;;;20.93;60.91
13235;BME280;6683;48.506;9.050;2022-08-18T03:34:21;97665.91;;;20.93;60.91
13235;BME280;6683;48.506;9.050;2022-08-18T03:37:23;97671.25;;;20.93;60.98
13235;BME280;6683;48.506;9.050;2022-08-18T03:40:26;97671.25;;;20.93;60.89
13235;BME280;6683;48.506;9.050;2022-08-18T03:43:30;97668.56;;;20.93;61.13
13235;BME280;6683;48.506;9.050;2022-08-18T03:46:33;97670.47;;;20.92;60.91
13235;BME280;6683;48.506;9.050;2022-08-18T03:49:36;97660.00;;;20.91;61.12
13235;BME280;6683;48.506;9.050;2022-08-18T03:52:39;97669.13;;;20.90;61.13
13235;BME280;6683;48.506;9.050;2022-08-18T03:55:42;97677.41;;;20.88;61.11
13235;BME280;6683;48.506;9.050;2022-08-18T03:58:48;97678.50;;;20.87;61.17
13235;BME280;6683;48.506;9.050;2022-08-18T04:01:53;97682.25;;;20.86;61.14
13235;BME280;6683;48.506;9.050;2022-08-18T04:04:55;97684.13;;;20.86;61.17
13235;BME280;6683;48.506;9.050;2022-08-18T04:07:57;97677.97;;;20.85;61.34
13235;BME280;6683;48.506;9.050;2022-08-18T04:11:00;97675.81;;;20.87;61.28
13235;BME280;6683;48.506;9.050;2022-08-18T04:14:04;97677.69;;;20.87;61.41
13235;BME280;6683;48.506;9.050;2022-08-18T04:17:07;97685.72;;;20.87;61.65
13235;BME280;6683;48.506;9.050;2022-08-18T04:20:10;97687.38;;;20.88;61.83
13235;BME280;6683;48.506;9.050;2022-08-18T04:23:13;97678.50;;;20.87;61.71
13235;BME280;6683;48.506;9.050;2022-08-18T04:26:17;97677.69;;;20.87;61.76
13235;BME280;6683;48.506;9.050;2022-08-18T04:29:21;97677.69;;;20.87;61.95
13235;BME280;6683;48.506;9.050;2022-08-18T04:32:24;97679.03;;;20.89;61.81
13235;BME280;6683;48.506;9.050;2022-08-18T04:35:27;97687.38;;;20.88;61.82
13235;BME280;6683;48.506;9.050;2022-08-18T04:38:29;97694.59;;;20.87;61.80
13235;BME280;6683;48.506;9.050;2022-08-18T04:41:33;97695.94;;;20.85;61.87
13235;BME280;6683;48.506;9.050;2022-08-18T04:44:36;97705.31;;;20.82;61.83
13235;BME280;6683;48.506;9.050;2022-08-18T04:47:39;97708.78;;;20.83;61.89
13235;BME280;6683;48.506;9.050;2022-08-18T04:50:43;97709.59;;;20.83;61.79
13235;BME280;6683;48.506;9.050;2022-08-18T04:53:46;97715.50;;;20.80;61.95
13235;BME280;6683;48.506;9.050;2022-08-18T04:56:47;97723.81;;;20.79;61.82
13235;BME280;6683;48.506;9.050;2022-08-18T04:59:52;97724.88;;;20.78;62.00
13235;BME280;6683;48.506;9.050;2022-08-18T05:02:55;97725.44;;;20.80;62.09
13235;BME280;6683;48.506;9.050;2022-08-18T05:05:58;97735.34;;;20.84;62.05
13235;BME280;6683;48.506;9.050;2022-08-18T05:09:05;97730.53;;;20.86;62.13
13235;BME280;6683;48.506;9.050;2022-08-18T05:12:09;97735.41;;;20.94;62.32
13235;BME280;6683;48.506;9.050;2022-08-18T05:15:14;97718.25;;;21.00;62.34
13235;BME280;6683;48.506;9.050;2022-08-18T05:18:17;97701.94;;;21.07;62.23
13235;BME280;6683;48.506;9.050;2022-08-18T05:21:24;97702.75;;;21.12;62.20
13235;BME280;6683;48.506;9.050;2022-08-18T05:24:29;97696.81;;;21.15;62.08
13235;BME280;6683;48.506;9.050;2022-08-18T05:27:34;97689.34;;;21.22;62.15
13235;BME280;6683;48.506;9.050;2022-08-18T05:30:38;97687.22;;;21.29;61.99
13235;BME280;6683;48.506;9.050;2022-08-18T05:33:41;97686.66;;;21.32;61.97
13235;BME280;6683;48.506;9.050;2022-08-18T05:37:18;97686.66;;;21.32;61.89
13235;BME280;6683;48.506;9.050;2022-08-18T05:40:25;97684.50;;;21.34;61.63
13235;BME280;6683;48.506;9.050;2022-08-18T05:43:29;97686.13;;;21.35;61.81
13235;BME280;6683;48.506;9.050;2022-08-18T05:46:50;97690.16;;;21.38;61.52
13235;BME280;6683;48.506;9.050;2022-08-18T05:50:31;97694.47;;;21.44;61.56
13235;BME280;6683;48.506;9.050;2022-08-18T05:53:34;97696.34;;;21.48;61.34
13235;BME280;6683;48.506;9.050;2022-08-18T05:56:59;97685.06;;;21.52;61.39
13235;BME280;6683;48.506;9.050;2022-08-18T06:00:05;97694.72;;;21.58;61.28
13235;BME280;6683;48.506;9.050;2022-08-18T06:03:19;97688.56;;;21.62;61.43
13235;BME280;6683;48.506;9.050;2022-08-18T06:06:26;97697.69;;;21.66;61.45
13235;BME280;6683;48.506;9.050;2022-08-18T06:09:37;97708.16;;;21.73;61.47
13235;BME280;6683;48.506;9.050;2022-08-18T06:12:46;97710.03;;;21.77;61.42
13235;BME280;6683;48.506;9.050;2022-08-18T06:15:58;97715.19;;;21.84;61.03
13235;BME280;6683;48.506;9.050;2022-08-18T06:19:26;97698.50;;;21.92;60.98
13235;BME280;6683;48.506;9.050;2022-08-18T06:22:38;97699.56;;;21.96;60.75
13235;BME280;6683;48.506;9.050;2022-08-18T06:25:56;97697.69;;;21.96;60.63
13235;BME280;6683;48.506;9.050;2022-08-18T06:29:18;97685.88;;;21.97;60.64
13235;BME280;6683;48.506;9.050;2022-08-18T06:32:32;97683.97;;;22.03;60.59
13235;BME280;6683;48.506;9.050;2022-08-18T06:35:46;97681.28;;;22.08;60.64
13235;BME280;6683;48.506;9.050;2022-08-18T06:38:59;97679.91;;;22.15;60.61
13235;BME280;6683;48.506;9.050;2022-08-18T06:42:04;97687.97;;;22.25;60.75
13235;BME280;6683;48.506;9.050;2022-08-18T06:45:10;97699.50;;;22.36;60.52
13235;BME280;6683;48.506;9.050;2022-08-18T06:48:26;97708.59;;;22.45;60.88
13235;BME280;6683;48.506;9.050;2022-08-18T06:51:34;97735.19;;;22.57;60.47
13235;BME280;6683;48.506;9.050;2022-08-18T06:54:41;97741.63;;;22.66;60.30
13235;BME280;6683;48.506;9.050;2022-08-18T06:57:54;97757.50;;;22.72;60.28
13235;BME280;6683;48.506;9.050;2022-08-18T07:01:04;97782.78;;;22.76;60.38
13235;BME280;6683;48.506;9.050;2022-08-18T07:04:07;97782.78;;;22.76;60.21
13235;BME280;6683;48.506;9.050;2022-08-18T07:07:23;97776.34;;;22.72;60.01
13235;BME280;6683;48.506;9.050;2022-08-18T07:10:34;97789.25;;;22.70;60.22
13235;BME280;6683;48.506;9.050;2022-08-18T07:13:39;97781.22;;;22.65;60.08
13235;BME280;6683;48.506;9.050;2022-08-18T07:16:41;97775.84;;;22.65;60.21
13235;BME280;6683;48.506;9.050;2022-08-18T07:19:59;97765.59;;;22.67;60.07
13235;BME280;6683;48.506;9.050;2022-08-18T07:23:04;97770.94;;;22.72;60.06
13235;BME280;6683;48.506;9.050;2022-08-18T07:26:10;97768.78;;;22.74;60.10
13235;BME280;6683;48.506;9.050;2022-08-18T07:29:15;97775.50;;;22.77;59.75
13235;BME280;6683;48.506;9.050;2022-08-18T07:32:18;97778.97;;;22.82;59.81
13235;BME280;6683;48.506;9.050;2022-08-18T07:35:34;97771.72;;;22.88;60.06
13235;BME280;6683;48.506;9.050;2022-08-18T07:38:45;97768.19;;;22.92;59.81
13235;BME280;6683;48.506;9.050;2022-08-18T07:41:54;97775.72;;;22.95;60.01
13235;BME280;6683;48.506;9.050;2022-08-18T07:45:04;97761.44;;;22.95;59.92
13235;BME280;6683;48.506;9.050;2022-08-18T07:48:14;97748.25;;;22.98;59.62
13235;BME280;6683;48.506;9.050;2022-08-18T07:51:23;97718.88;;;23.02;59.68
13235;BME280;6683;48.506;9.050;2022-08-18T07:54:42;97702.13;;;23.10;59.25
13235;BME280;6683;48.506;9.050;2022-08-18T07:58:13;97712.84;;;23.20;59.36
13235;BME280;6683;48.506;9.050;2022-08-18T08:01:24;97711.47;;;23.28;59.40
13235;BME280;6683;48.506;9.050;2022-08-18T08:04:39;97711.13;;;23.39;59.31
13235;BME280;6683;48.506;9.050;2022-08-18T08:07:53;97730.72;;;23.55;59.25
13235;BME280;6683;48.506;9.050;2022-08-18T08:11:12;97739.19;;;23.72;58.68
13235;BME280;6683;48.506;9.050;2022-08-18T08:14:40;97754.09;;;23.93;58.22
13235;BME280;6683;48.506;9.050;2022-08-18T08:17:50;97762.41;;;24.07;58.03
13235;BME280;6683;48.506;9.050;2022-08-18T08:20:57;97753.28;;;24.26;58.22
13235;BME280;6683;48.506;9.050;2022-08-18T08:24:09;97746.84;;;24.51;57.86
13235;BME280;6683;48.506;9.050;2022-08-18T08:27:25;97752.53;;;24.73;57.54
13235;BME280;6683;48.506;9.050;2022-08-18T08:30:34;97744.72;;;24.95;56.97
13235;BME280;6683;48.506;9.050;2022-08-18T08:33:42;97739.94;;;25.11;56.80
13235;BME280;6683;48.506;9.050;2022-08-18T08:36:47;97739.94;;;25.29;56.21
13235;BME280;6683;48.506;9.050;2022-08-18T08:39:57;97736.41;;;25.53;55.65
13235;BME280;6683;48.506;9.050;2022-08-18T08:43:07;97722.84;;;25.71;55.24
13235;BME280;6683;48.506;9.050;2022-08-18T08:46:16;97703.19;;;25.84;55.23
13235;BME280;6683;48.506;9.050;2022-08-18T08:49:34;97699.59;;;26.02;54.71
13235;BME280;6683;48.506;9.050;2022-08-18T08:52:45;97707.50;;;26.18;54.27
13235;BME280;6683;48.506;9.050;2022-08-18T08:55:51;97700.69;;;26.34;53.90
13235;BME280;6683;48.506;9.050;2022-08-18T08:58:58;97687.25;;;26.56;53.20
13235;BME280;6683;48.506;9.050;2022-08-18T09:02:30;97676.81;;;26.76;53.16
13235;BME280;6683;48.506;9.050;2022-08-18T09:05:41;97670.34;;;27.13;52.33
13235;BME280;6683;48.506;9.050;2022-08-18T09:09:12;97672.09;;;27.45;51.59
13235;BME280;6683;48.506;9.050;2022-08-18T09:12:32;97655.19;;;27.70;51.03
13235;BME280;6683;48.506;9.050;2022-08-18T09:16:03;97673.72;;;27.99;50.30
13235;BME280;6683;48.506;9.050;2022-08-18T09:22:47;97689.22;;;28.60;49.52
13235;BME280;6683;48.506;9.050;2022-08-18T09:25:54;97695.34;;;28.91;48.57
13235;BME280;6683;48.506;9.050;2022-08-18T09:28:59;97687.25;;;29.08;47.92
13235;BME280;6683;48.506;9.050;2022-08-18T09:32:54;97692.50;;;29.13;47.82
13235;BME280;6683;48.506;9.050;2022-08-18T09:36:27;97694.47;;;29.38;47.47
13235;BME280;6683;48.506;9.050;2022-08-18T09:39:38;97693.38;;;29.73;46.85
13235;BME280;6683;48.506;9.050;2022-08-18T09:43:12;97700.06;;;30.02;45.95
13235;BME280;6683;48.506;9.050;2022-08-18T09:46:54;97693.41;;;30.37;45.54
13235;BME280;6683;48.506;9.050;2022-08-18T09:50:52;97688.91;;;30.70;44.91
13235;BME280;6683;48.506;9.050;2022-08-18T09:54:14;97685.69;;;30.76;44.52
13235;BME280;6683;48.506;9.050;2022-08-18T09:57:23;97677.63;;;30.80;44.27
13235;BME280;6683;48.506;9.050;2022-08-18T10:00:29;97672.97;;;30.89;44.15
13235;BME280;6683;48.506;9.050;2022-08-18T10:03:32;97665.00;;;31.05;43.78
13235;BME280;6683;48.506;9.050;2022-08-18T10:06:38;97658.53;;;31.30;43.26
13235;BME280;6683;48.506;9.050;2022-08-18T10:09:52;97661.94;;;31.68;42.66
13235;BME280;6683;48.506;9.050;2022-08-18T10:13:09;97653.41;;;32.02;41.77
13235;BME280;6683;48.506;9.050;2022-08-18T10:16:23;97630.91;;;32.29;41.22
13235;BME280;6683;48.506;9.050;2022-08-18T10:19:37;97620.56;;;32.59;40.59
13235;BME280;6683;48.506;9.050;2022-08-18T10:22:47;97611.91;;;32.81;39.86
13235;BME280;6683;48.506;9.050;2022-08-18T10:25:49;97602.75;;;33.01;39.61
13235;BME280;6683;48.506;9.050;2022-08-18T10:28:57;97577.34;;;33.29;38.76
13235;BME280;6683;48.506;9.050;2022-08-18T10:32:38;97581.69;;;33.57;38.35
13235;BME280;6683;48.506;9.050;2022-08-18T10:35:57;97607.22;;;33.61;38.23
13235;BME280;6683;48.506;9.050;2022-08-18T10:39:05;97601.03;;;33.37;38.13
13235;BME280;6683;48.506;9.050;2022-08-18T10:42:14;97591.22;;;33.08;38.05
13235;BME280;6683;48.506;9.050;2022-08-18T10:45:24;97584.06;;;32.91;37.80
13235;BME280;6683;48.506;9.050;2022-08-18T10:48:30;97576.91;;;32.87;37.72
13235;BME280;6683;48.506;9.050;2022-08-18T10:52:11;97578.66;;;32.67;38.09
13235;BME280;6683;48.506;9.050;2022-08-18T10:55:52;97566.38;;;32.49;38.28
13235;BME280;6683;48.506;9.050;2022-08-18T10:59:23;97557.47;;;32.40;38.09
13235;BME280;6683;48.506;9.050;2022-08-18T11:02:54;97562.03;;;32.24;37.97
13235;BME280;6683;48.506;9.050;2022-08-18T11:06:05;97569.22;;;32.16;38.01
13235;BME280;6683;48.506;9.050;2022-08-18T11:09:10;97568.66;;;32.23;37.83
13235;BME280;6683;48.506;9.050;2022-08-18T11:12:14;97569.13;;;32.25;37.64
13235;BME280;6683;48.506;9.050;2022-08-18T11:15:48;97569.78;;;32.10;38.05
13235;BME280;6683;48.506;9.050;2022-08-18T11:19:04;97566.91;;;31.94;37.74
13235;BME280;6683;48.506;9.050;2022-08-18T11:22:24;97563.25;;;31.78;38.29
13235;BME280;6683;48.506;9.050;2022-08-18T11:25:30;97554.34;;;31.69;38.38
13235;BME280;6683;48.506;9.050;2022-08-18T11:28:34;97558.56;;;31.67;38.30
13235;BME280;6683;48.506;9.050;2022-08-18T11:31:36;97547.53;;;31.75;38.57
13235;BME280;6683;48.506;9.050;2022-08-18T11:34:43;97560.09;;;32.00;38.18
13235;BME280;6683;48.506;9.050;2022-08-18T11:37:53;97546.47;;;32.24;37.80
13235;BME280;6683;48.506;9.050;2022-08-18T11:41:13;97543.94;;;32.44;37.34
13235;BME280;6683;48.506;9.050;2022-08-18T11:44:23;97545.63;;;32.72;37.38
13235;BME280;6683;48.506;9.050;2022-08-18T11:47:28;97528.34;;;32.96;36.72
13235;BME280;6683;48.506;9.050;2022-08-18T11:50:31;97531.06;;;33.08;36.82
13235;BME280;6683;48.506;9.050;2022-08-18T11:53:40;97519.38;;;33.23;36.37
13235;BME280;6683;48.506;9.050;2022-08-18T11:56:43;97513.91;;;33.39;36.08
13235;BME280;6683;48.506;9.050;2022-08-18T11:59:47;97508.94;;;33.56;35.61
13235;BME280;6683;48.506;9.050;2022-08-18T12:03:00;97502.50;;;33.64;35.53
13235;BME280;6683;48.506;9.050;2022-08-18T12:06:13;97511.00;;;33.47;35.70
13235;BME280;6683;48.506;9.050;2022-08-18T12:09:35;97521.47;;;33.14;35.74
13235;BME280;6683;48.506;9.050;2022-08-18T12:12:45;97522.22;;;32.87;35.85
13235;BME280;6683;48.506;9.050;2022-08-18T12:16:12;97519.69;;;32.54;36.27
13235;BME280;6683;48.506;9.050;2022-08-18T12:19:15;97520.84;;;32.29;36.27
13235;BME280;6683;48.506;9.050;2022-08-18T12:22:21;97521.75;;;31.97;36.38
13235;BME280;6683;48.506;9.050;2022-08-18T12:25:24;97519.56;;;31.66;36.71
13235;BME280;6683;48.506;9.050;2022-08-18T12:28:27;97511.50;;;31.37;36.90
13235;BME280;6683;48.506;9.050;2022-08-18T12:31:31;97517.09;;;31.08;37.05
13235;BME280;6683;48.506;9.050;2022-08-18T12:34:33;97518.75;;;30.79;37.04
13235;BME280;6683;48.506;9.050;2022-08-18T12:37:37;97519.28;;;30.52;37.40
13235;BME280;6683;48.506;9.050;2022-08-18T12:40:42;97512.75;;;30.24;37.72
13235;BME280;6683;48.506;9.050;2022-08-18T12:43:45;97518.16;;;30.04;37.92
13235;BME280;6683;48.506;9.050;2022-08-18T12:46:49;97507.81;;;29.88;38.11
13235;BME280;6683;48.506;9.050;2022-08-18T12:49:52;97507.25;;;29.74;38.22
13235;BME280;6683;48.506;9.050;2022-08-18T12:52:54;97494.47;;;29.58;38.67
13235;BME280;6683;48.506;9.050;2022-08-18T12:55:57;97492.41;;;29.46;38.88
13235;BME280;6683;48.506;9.050;2022-08-18T12:59:02;97484.94;;;29.35;39.06
13235;BME280;6683;48.506;9.050;2022-08-18T13:02:06;97487.03;;;29.29;39.09
13235;BME280;6683;48.506;9.050;2022-08-18T13:05:10;97485.31;;;29.25;39.12
13235;BME280;6683;48.506;9.050;2022-08-18T13:08:17;97467.72;;;29.22;39.10
13235;BME280;6683;48.506;9.050;2022-08-18T13:11:22;97468.19;;;29.24;39.29
13235;BME280;6683;48.506;9.050;2022-08-18T13:14:25;97465.91;;;29.35;39.46
13235;BME280;6683;48.506;9.050;2022-08-18T13:17:30;97466.84;;;29.47;39.22
13235;BME280;6683;48.506;9.050;2022-08-18T13:20:32;97470.78;;;29.58;39.08
13235;BME280;6683;48.506;9.050;2022-08-18T13:23:36;97471.88;;;29.74;38.97
13235;BME280;6683;48.506;9.050;2022-08-18T13:26:42;97471.81;;;29.83;38.91
13235;BME280;6683;48.506;9.050;2022-08-18T13:29:45;97477.41;;;29.86;38.61
13235;BME280;6683;48.506;9.050;2022-08-18T13:32:49;97472.31;;;29.85;38.60
13235;BME280;6683;48.506;9.050;2022-08-18T13:35:53;97465.13;;;29.80;38.49
13235;BME280;6683;48.506;9.050;2022-08-18T13:38:56;97472.66;;;29.75;38.55
13235;BME280;6683;48.506;9.050;2022-08-18T13:41:59;97466.22;;;29.71;38.65
13235;BME280;6683;48.506;9.050;2022-08-18T13:45:03;97454.25;;;29.72;38.63
13235;BME280;6683;48.506;9.050;2022-08-18T13:48:07;97456.97;;;29.72;38.62
13235;BME280;6683;48.506;9.050;2022-08-18T13:51:15;97455.53;;;29.74;38.63
13235;BME280;6683;48.506;9.050;2022-08-18T13:54:23;97456.78;;;29.77;38.71
13235;BME280;6683;48.506;9.050;2022-08-18T13:57:25;97463.19;;;29.81;38.36
13235;BME280;6683;48.506;9.050;2022-08-18T14:00:27;97474.38;;;29.79;38.13
13235;BME280;6683;48.506;9.050;2022-08-18T14:03:31;97477.56;;;29.81;38.27
13235;BME280;6683;48.506;9.050;2022-08-18T14:06:35;97477.28;;;29.83;37.90
13235;BME280;6683;48.506;9.050;2022-08-18T14:09:38;97478.03;;;29.83;37.59
13235;BME280;6683;48.506;9.050;2022-08-18T14:12:41;97477.75;;;29.85;37.71
13235;BME280;6683;48.506;9.050;2022-08-18T14:15:44;97468.31;;;29.82;37.48
13235;BME280;6683;48.506;9.050;2022-08-18T14:18:48;97470.56;;;29.80;37.44
13235;BME280;6683;48.506;9.050;2022-08-18T14:22:05;97467.50;;;29.82;37.49
13235;BME280;6683;48.506;9.050;2022-08-18T14:25:24;97463.50;;;29.79;37.37
13235;BME280;6683;48.506;9.050;2022-08-18T14:28:44;97471.66;;;29.79;37.39
13235;BME280;6683;48.506;9.050;2022-08-18T14:31:49;97476.00;;;29.80;37.15
13235;BME280;6683;48.506;9.050;2022-08-18T14:34:53;97480.16;;;29.78;37.38
13235;BME280;6683;48.506;9.050;2022-08-18T14:37:55;97477.78;;;29.76;37.29
13235;BME280;6683;48.506;9.050;2022-08-18T14:41:01;97466.44;;;29.74;37.25
13235;BME280;6683;48.506;9.050;2022-08-18T14:44:05;97460.03;;;29.70;37.54
13235;BME280;6683;48.506;9.050;2022-08-18T14:47:08;97475.06;;;29.68;37.33
13235;BME280;6683;48.506;9.050;2022-08-18T14:50:12;97468.34;;;29.65;37.27
13235;BME280;6683;48.506;9.050;2022-08-18T14:53:15;97466.78;;;29.64;37.17
13235;BME280;6683;48.506;9.050;2022-08-18T14:56:19;97472.03;;;29.61;37.48
13235;BME280;6683;48.506;9.050;2022-08-18T14:59:22;97469.66;;;29.59;37.20
13235;BME280;6683;48.506;9.050;2022-08-18T15:02:24;97468.06;;;29.58;37.63
13235;BME280;6683;48.506;9.050;2022-08-18T15:05:28;97469.19;;;29.57;37.57
13235;BME280;6683;48.506;9.050;2022-08-18T15:08:33;97466.47;;;29.57;37.66
13235;BME280;6683;48.506;9.050;2022-08-18T15:11:36;97473.50;;;29.58;37.39
13235;BME280;6683;48.506;9.050;2022-08-18T15:14:38;97476.53;;;29.57;37.57
13235;BME280;6683;48.506;9.050;2022-08-18T15:17:40;97473.34;;;29.55;37.38
13235;BME280;6683;48.506;9.050;2022-08-18T15:20:44;97479.13;;;29.53;37.33
13235;BME280;6683;48.506;9.050;2022-08-18T15:24:05;97468.59;;;29.52;37.79
13235;BME280;6683;48.506;9.050;2022-08-18T15:27:30;97465.41;;;29.50;37.72
13235;BME280;6683;48.506;9.050;2022-08-18T15:30:33;97460.72;;;29.50;37.59
13235;BME280;6683;48.506;9.050;2022-08-18T15:33:37;97464.25;;;29.51;37.57
13235;BME280;6683;48.506;9.050;2022-08-18T15:36:41;97457.72;;;29.52;37.47
13235;BME280;6683;48.506;9.050;2022-08-18T15:39:43;97456.56;;;29.53;37.47
13235;BME280;6683;48.506;9.050;2022-08-18T15:42:50;97444.88;;;29.52;37.36
13235;BME280;6683;48.506;9.050;2022-08-18T15:45:53;97447.44;;;29.57;37.44
13235;BME280;6683;48.506;9.050;2022-08-18T15:48:56;97447.91;;;29.59;37.51
13235;BME280;6683;48.506;9.050;2022-08-18T15:52:00;97444.84;;;29.61;37.37
13235;BME280;6683;48.506;9.050;2022-08-18T15:55:03;97452.03;;;29.65;37.57
13235;BME280;6683;48.506;9.050;2022-08-18T15:58:07;97454.09;;;29.68;37.22
13235;BME280;6683;48.506;9.050;2022-08-18T16:01:10;97447.41;;;29.66;37.22
13235;BME280;6683;48.506;9.050;2022-08-18T16:04:12;97448.50;;;29.65;37.27
13235;BME280;6683;48.506;9.050;2022-08-18T16:07:16;97445.47;;;29.66;37.24
13235;BME280;6683;48.506;9.050;2022-08-18T16:10:21;97441.47;;;29.64;37.06
13235;BME280;6683;48.506;9.050;2022-08-18T16:13:24;97444.19;;;29.64;37.36
13235;BME280;6683;48.506;9.050;2022-08-18T16:16:29;97445.78;;;29.65;37.07
13235;BME280;6683;48.506;9.050;2022-08-18T16:19:31;97439.06;;;29.62;37.32
13235;BME280;6683;48.506;9.050;2022-08-18T16:22:36;97448.72;;;29.60;37.41
13235;BME280;6683;48.506;9.050;2022-08-18T16:25:39;97449.00;;;29.58;37.35
13235;BME280;6683;48.506;9.050;2022-08-18T16:28:43;97448.72;;;29.60;37.64
13235;BME280;6683;48.506;9.050;2022-08-18T16:31:46;97456.53;;;29.61;37.82
13235;BME280;6683;48.506;9.050;2022-08-18T16:34:50;97441.19;;;29.57;37.67
13235;BME280;6683;48.506;9.050;2022-08-18T16:37:56;97446.16;;;29.55;37.70
13235;BME280;6683;48.506;9.050;2022-08-18T16:41:04;97449.84;;;29.50;38.02
13235;BME280;6683;48.506;9.050;2022-08-18T16:44:08;97447.63;;;29.44;37.88
13235;BME280;6683;48.506;9.050;2022-08-18T16:47:11;97443.03;;;29.36;37.99
13235;BME280;6683;48.506;9.050;2022-08-18T16:50:17;97441.16;;;29.28;38.11
13235;BME280;6683;48.506;9.050;2022-08-18T16:53:21;97435.72;;;29.19;38.32